Time;durP1;ratioP1;P1;durP2;ratioP2;P2;SDS_P1;SDS_P2;PMS_P1;PMS_P2;Temp;Humidity;BMP_temperature;BMP_pressure;BME280_temperature;BME280_humidity;BME280_pressure;Samples;Min_cycle;Max_cycle;Signal;HPM_P1;HPM_P2
2021/11/30 00:00:08;;;;;;;0.10;0.10;;;4.70;99.90;;;;;;5060062;28;20185;-83
2021/11/30 00:02:34;;;;;;;0.27;0.27;;;4.70;99.90;;;;;;5028820;28;20543;-84
2021/11/30 00:05:00;;;;;;;0.33;0.33;;;4.70;99.90;;;;;;5036589;28;20600;-84
2021/11/30 00:07:25;;;;;;;0.10;0.10;;;4.70;99.90;;;;;;5028277;28;20178;-84
2021/11/30 00:12:24;;;;;;;0.10;0.10;;;4.70;99.90;;;;;;5055058;28;20213;-84
2021/11/30 00:14:53;;;;;;;0.10;0.10;;;4.70;99.90;;;;;;5038080;28;20185;-83
2021/11/30 00:17:20;;;;;;;0.20;0.20;;;4.70;99.90;;;;;;5054324;28;20226;-83
2021/11/30 00:19:47;;;;;;;0.10;0.10;;;4.70;99.90;;;;;;5036405;28;20197;-84
2021/11/30 00:22:16;;;;;;;0.20;0.20;;;4.70;99.90;;;;;;5036770;28;20188;-84
2021/11/30 00:24:42;;;;;;;0.10;0.10;;;4.70;99.90;;;;;;5039490;28;20248;-84
2021/11/30 00:27:07;;;;;;;2.10;0.43;;;4.70;99.90;;;;;;5032162;28;20643;-84
2021/11/30 00:29:34;;;;;;;0.27;0.27;;;4.70;99.90;;;;;;5031637;28;20228;-84
2021/11/30 00:32:01;;;;;;;0.20;0.20;;;4.70;99.90;;;;;;5038626;28;20639;-84
2021/11/30 00:34:26;;;;;;;0.00;0.00;;;4.60;99.90;;;;;;5036328;28;20647;-84
2021/11/30 00:36:53;;;;;;;0.37;0.30;;;4.60;99.90;;;;;;5036183;28;20184;-83
2021/11/30 00:39:19;;;;;;;0.57;0.57;;;4.70;99.90;;;;;;5030772;28;20279;-84
2021/11/30 00:41:50;;;;;;;0.23;0.23;;;4.70;99.90;;;;;;5034761;28;20188;-84
2021/11/30 00:44:21;;;;;;;0.93;0.53;;;4.60;99.90;;;;;;5036648;28;20209;-83
2021/11/30 00:46:49;;;;;;;0.10;0.10;;;4.60;99.90;;;;;;5035420;28;20169;-83
2021/11/30 00:49:14;;;;;;;0.40;0.40;;;4.60;99.90;;;;;;5034739;28;20247;-84
2021/11/30 00:51:43;;;;;;;0.53;0.37;;;4.60;99.90;;;;;;5031188;28;20623;-84
2021/11/30 00:54:13;;;;;;;0.30;0.30;;;4.60;99.90;;;;;;5033687;28;20667;-85
2021/11/30 00:56:41;;;;;;;0.10;0.10;;;4.60;99.90;;;;;;5037808;28;20189;-84
2021/11/30 00:59:06;;;;;;;0.37;0.37;;;4.70;99.90;;;;;;5030437;28;20204;-84
2021/11/30 01:01:32;;;;;;;0.17;0.17;;;4.70;99.90;;;;;;5028471;28;20231;-84
2021/11/30 01:03:59;;;;;;;0.50;0.20;;;4.70;99.90;;;;;;5053381;28;20568;-84
2021/11/30 01:06:26;;;;;;;0.13;0.13;;;4.60;99.90;;;;;;5032681;28;20558;-83
2021/11/30 01:08:52;;;;;;;0.10;0.10;;;4.70;99.90;;;;;;5032358;28;20202;-84
2021/11/30 01:11:18;;;;;;;0.20;0.20;;;4.60;99.90;;;;;;5056611;28;20217;-84
2021/11/30 01:13:44;;;;;;;0.20;0.17;;;4.60;99.90;;;;;;5035662;28;20195;-84
2021/11/30 01:16:10;;;;;;;0.23;0.20;;;4.60;99.90;;;;;;5025682;28;20194;-84
2021/11/30 01:18:36;;;;;;;0.60;0.60;;;4.60;99.90;;;;;;5031406;28;20204;-84
2021/11/30 01:21:02;;;;;;;0.50;0.30;;;4.60;99.90;;;;;;5037462;28;20187;-85
2021/11/30 01:23:31;;;;;;;0.17;0.17;;;4.60;99.90;;;;;;5043075;28;20200;-83
2021/11/30 01:25:59;;;;;;;0.20;0.20;;;4.60;99.90;;;;;;5040639;28;20185;-83
2021/11/30 01:28:25;;;;;;;0.10;0.10;;;4.60;99.90;;;;;;5024799;28;20263;-84
2021/11/30 01:30:50;;;;;;;0.10;0.10;;;4.50;99.90;;;;;;5051186;28;20280;-83
2021/11/30 01:33:16;;;;;;;0.20;0.20;;;4.50;99.90;;;;;;5044928;28;20657;-83
2021/11/30 01:35:46;;;;;;;0.10;0.10;;;4.50;99.90;;;;;;5027257;28;20231;-84
2021/11/30 01:38:14;;;;;;;0.40;0.40;;;4.50;99.90;;;;;;5037848;28;20350;-84
2021/11/30 01:40:40;;;;;;;0.13;0.13;;;4.50;99.90;;;;;;5028937;28;20763;-84
2021/11/30 01:43:08;;;;;;;0.20;0.20;;;4.50;99.90;;;;;;5030667;28;20213;-83
2021/11/30 01:50:34;;;;;;;0.20;0.20;;;4.50;99.90;;;;;;5052747;28;20205;-84
2021/11/30 01:53:00;;;;;;;0.10;0.10;;;4.50;99.90;;;;;;5038172;28;20263;-83
2021/11/30 01:55:27;;;;;;;0.10;0.10;;;4.50;99.90;;;;;;5034015;28;20217;-84
2021/11/30 01:57:53;;;;;;;0.20;0.20;;;4.50;99.90;;;;;;5034677;28;20204;-84
2021/11/30 02:00:21;;;;;;;0.10;0.10;;;4.40;99.90;;;;;;5024222;28;20679;-84
2021/11/30 02:02:47;;;;;;;0.30;0.30;;;4.40;99.90;;;;;;5053368;28;20572;-84
2021/11/30 02:05:12;;;;;;;0.20;0.20;;;4.40;99.90;;;;;;5037757;28;20186;-84
2021/11/30 02:07:40;;;;;;;2.20;0.40;;;4.40;99.90;;;;;;5022465;28;20256;-83
2021/11/30 02:10:09;;;;;;;0.20;0.20;;;4.40;99.90;;;;;;5032364;28;20180;-84
2021/11/30 02:12:36;;;;;;;0.10;0.10;;;4.40;99.90;;;;;;5029213;28;20184;-84
2021/11/30 02:15:03;;;;;;;0.33;0.30;;;4.40;99.90;;;;;;5052939;28;20257;-84
2021/11/30 02:17:29;;;;;;;0.47;0.47;;;4.30;99.90;;;;;;5029015;28;20692;-84
2021/11/30 02:19:57;;;;;;;0.67;0.67;;;4.30;99.90;;;;;;5034491;28;20187;-83
2021/11/30 02:22:24;;;;;;;0.10;0.10;;;4.30;99.90;;;;;;5027485;28;20231;-84
2021/11/30 02:24:49;;;;;;;0.20;0.20;;;4.30;99.90;;;;;;5034377;28;20701;-84
2021/11/30 02:27:15;;;;;;;0.40;0.40;;;4.40;99.90;;;;;;5053064;28;20192;-84
2021/11/30 02:29:41;;;;;;;0.17;0.17;;;4.30;99.90;;;;;;5037808;28;20674;-84
2021/11/30 02:32:07;;;;;;;0.23;0.17;;;4.40;99.90;;;;;;5043021;28;20820;-84
2021/11/30 02:34:33;;;;;;;0.10;0.10;;;4.40;99.90;;;;;;5036604;28;20276;-84
2021/11/30 02:37:10;;;;;;;0.30;0.30;;;4.40;99.90;;;;;;5034669;28;20173;-84
2021/11/30 02:39:36;;;;;;;0.40;0.40;;;4.40;99.90;;;;;;5040696;28;20206;-84
2021/11/30 02:42:05;;;;;;;0.17;0.17;;;4.40;99.90;;;;;;5019296;28;20209;-85
2021/11/30 02:44:32;;;;;;;0.20;0.20;;;4.40;99.90;;;;;;5027025;28;20212;-85
2021/11/30 02:47:09;;;;;;;0.10;0.10;;;4.40;99.90;;;;;;5034153;28;20180;-84
2021/11/30 02:49:38;;;;;;;0.10;0.10;;;4.40;99.90;;;;;;5030850;28;20214;-84
2021/11/30 02:52:10;;;;;;;0.20;0.20;;;4.40;99.90;;;;;;5028788;28;20186;-84
2021/11/30 02:54:41;;;;;;;0.70;0.70;;;4.40;99.90;;;;;;5031071;28;20185;-84
2021/11/30 02:57:08;;;;;;;0.73;0.50;;;4.40;99.90;;;;;;5037479;28;20191;-84
2021/11/30 02:59:37;;;;;;;0.10;0.10;;;4.40;99.90;;;;;;5029474;28;20209;-84
2021/11/30 03:02:18;;;;;;;0.30;0.30;;;4.40;99.90;;;;;;5031400;28;20220;-84
2021/11/30 03:04:46;;;;;;;0.10;0.10;;;4.40;99.90;;;;;;5022432;28;20285;-83
2021/11/30 03:07:14;;;;;;;0.10;0.10;;;4.40;99.90;;;;;;5023566;28;20181;-84
2021/11/30 03:09:40;;;;;;;0.13;0.13;;;4.40;99.90;;;;;;5031372;28;20259;-84
2021/11/30 03:12:07;;;;;;;0.07;0.07;;;4.40;99.90;;;;;;5045359;28;20669;-84
2021/11/30 03:14:33;;;;;;;0.10;0.10;;;4.40;99.90;;;;;;5026993;28;20258;-84
2021/11/30 03:16:58;;;;;;;0.43;0.40;;;4.40;99.90;;;;;;5033352;28;20185;-84
2021/11/30 03:19:26;;;;;;;0.20;0.20;;;4.40;99.90;;;;;;5025619;28;20761;-84
2021/11/30 03:21:52;;;;;;;0.20;0.20;;;4.30;99.90;;;;;;5031569;28;20217;-83
2021/11/30 03:24:18;;;;;;;0.10;0.10;;;4.30;99.90;;;;;;5024850;28;20242;-84
2021/11/30 03:26:44;;;;;;;0.80;0.80;;;4.40;99.90;;;;;;5037411;28;20187;-84
2021/11/30 03:29:09;;;;;;;0.10;0.10;;;4.40;99.90;;;;;;5033433;28;20205;-84
2021/11/30 03:34:13;;;;;;;0.17;0.17;;;4.40;99.90;;;;;;5054540;28;20173;-83
2021/11/30 03:36:40;;;;;;;0.10;0.10;;;4.40;99.90;;;;;;5031180;28;20186;-84
2021/11/30 03:39:11;;;;;;;0.67;0.30;;;4.40;99.90;;;;;;5048002;28;20670;-84
2021/11/30 03:41:37;;;;;;;0.10;0.10;;;4.40;99.90;;;;;;5033477;28;20182;-84
2021/11/30 03:44:05;;;;;;;0.10;0.10;;;4.40;99.90;;;;;;5034805;28;20210;-85
2021/11/30 03:46:31;;;;;;;0.30;0.30;;;4.40;99.90;;;;;;5051913;28;20189;-84
2021/11/30 03:48:58;;;;;;;0.10;0.10;;;4.40;99.90;;;;;;5032973;28;20303;-84
2021/11/30 03:51:25;;;;;;;0.10;0.10;;;4.40;99.90;;;;;;5044084;28;20216;-84
2021/11/30 03:53:51;;;;;;;0.37;0.37;;;4.40;99.90;;;;;;5040651;28;20254;-84
2021/11/30 03:56:16;;;;;;;0.13;0.13;;;4.40;99.90;;;;;;5029535;28;20217;-84
2021/11/30 03:58:42;;;;;;;0.10;0.10;;;4.40;99.90;;;;;;5041539;28;20298;-84
2021/11/30 04:01:08;;;;;;;0.20;0.20;;;4.40;99.90;;;;;;5036092;28;20639;-83
2021/11/30 04:03:34;;;;;;;0.10;0.10;;;4.30;99.90;;;;;;5039862;28;20209;-84
2021/11/30 04:06:02;;;;;;;1.27;0.40;;;4.30;99.90;;;;;;5036761;28;20177;-85
2021/11/30 04:08:28;;;;;;;0.20;0.20;;;4.30;99.90;;;;;;5039922;28;20192;-84
2021/11/30 04:10:54;;;;;;;1.50;1.03;;;4.30;99.90;;;;;;5034624;28;20560;-84
2021/11/30 04:13:20;;;;;;;0.10;0.10;;;4.30;99.90;;;;;;5054269;28;20196;-84
2021/11/30 04:15:45;;;;;;;0.20;0.20;;;4.30;99.90;;;;;;5028146;28;20231;-84
2021/11/30 04:18:11;;;;;;;0.10;0.10;;;4.30;99.90;;;;;;5043404;28;20212;-84
2021/11/30 04:20:37;;;;;;;0.30;0.30;;;4.30;99.90;;;;;;5033660;28;20597;-84
2021/11/30 04:23:03;;;;;;;0.03;0.03;;;4.30;99.90;;;;;;5046914;28;20212;-84
2021/11/30 04:25:29;;;;;;;0.87;0.10;;;4.40;99.90;;;;;;5043752;28;20185;-84
2021/11/30 04:27:54;;;;;;;0.10;0.10;;;4.40;99.90;;;;;;5024564;28;20244;-84
2021/11/30 04:30:20;;;;;;;0.10;0.10;;;4.30;99.90;;;;;;5033342;28;20460;-84
2021/11/30 04:32:45;;;;;;;0.10;0.10;;;4.30;99.90;;;;;;5031954;28;20173;-83
2021/11/30 04:35:11;;;;;;;0.30;0.30;;;4.30;99.90;;;;;;5052187;28;20176;-84
2021/11/30 04:37:38;;;;;;;0.57;0.40;;;4.20;99.90;;;;;;5035879;28;20224;-84
2021/11/30 04:40:06;;;;;;;1.13;1.13;;;4.20;99.90;;;;;;5045023;28;20520;-84
2021/11/30 04:42:32;;;;;;;0.20;0.20;;;4.20;99.90;;;;;;5047606;28;20177;-83
2021/11/30 04:45:05;;;;;;;0.20;0.20;;;4.20;99.90;;;;;;5029055;28;20663;-84
2021/11/30 04:47:34;;;;;;;0.63;0.20;;;4.20;99.90;;;;;;5031849;28;20187;-83
2021/11/30 04:50:05;;;;;;;0.03;0.03;;;4.20;99.90;;;;;;5031932;28;20277;-84
2021/11/30 04:52:31;;;;;;;0.10;0.10;;;4.20;99.90;;;;;;5026879;28;20187;-84
2021/11/30 04:54:58;;;;;;;0.10;0.10;;;4.20;99.90;;;;;;5054578;28;20548;-83
2021/11/30 04:57:24;;;;;;;0.93;0.40;;;4.20;99.90;;;;;;5043402;28;20251;-83
2021/11/30 04:59:49;;;;;;;0.10;0.10;;;4.20;99.90;;;;;;5056341;28;20206;-84
2021/11/30 05:02:15;;;;;;;0.13;0.13;;;4.20;99.90;;;;;;5054760;28;20187;-84
2021/11/30 05:04:42;;;;;;;0.10;0.10;;;4.10;99.90;;;;;;5051041;28;20229;-84
2021/11/30 05:07:08;;;;;;;0.37;0.23;;;4.10;99.90;;;;;;5032683;28;20607;-83
2021/11/30 05:09:34;;;;;;;0.23;0.23;;;4.10;99.90;;;;;;5030183;28;20299;-84
2021/11/30 05:12:00;;;;;;;0.40;0.40;;;4.10;99.90;;;;;;5032792;28;20261;-85
2021/11/30 05:14:25;;;;;;;0.03;0.03;;;4.10;99.90;;;;;;5034550;28;20238;-83
2021/11/30 05:16:51;;;;;;;0.30;0.30;;;4.00;99.90;;;;;;5028716;28;20191;-83
2021/11/30 05:19:16;;;;;;;0.10;0.10;;;4.00;99.90;;;;;;5029880;28;20213;-83
2021/11/30 05:21:42;;;;;;;0.13;0.07;;;3.90;99.90;;;;;;5056520;28;20176;-84
2021/11/30 05:24:09;;;;;;;0.10;0.10;;;3.90;99.90;;;;;;5031573;28;20616;-84
2021/11/30 05:26:36;;;;;;;0.67;0.30;;;3.90;99.90;;;;;;5028948;28;20551;-84
2021/11/30 05:29:06;;;;;;;0.30;0.30;;;3.90;99.90;;;;;;5033417;28;20346;-84
2021/11/30 05:31:31;;;;;;;0.20;0.20;;;3.80;99.90;;;;;;5036303;28;20604;-84
2021/11/30 05:33:59;;;;;;;0.20;0.20;;;3.80;99.90;;;;;;5031475;28;20268;-84
2021/11/30 05:36:25;;;;;;;0.20;0.20;;;3.80;99.90;;;;;;5049580;28;20175;-83
2021/11/30 05:38:51;;;;;;;0.20;0.20;;;3.80;99.90;;;;;;5028461;28;20207;-84
2021/11/30 05:41:17;;;;;;;0.43;0.37;;;3.70;99.90;;;;;;5034060;28;20189;-84
2021/11/30 05:43:43;;;;;;;0.10;0.10;;;3.70;99.90;;;;;;5044779;28;20603;-83
2021/11/30 05:46:08;;;;;;;0.20;0.20;;;3.70;99.90;;;;;;5045008;28;20175;-83
2021/11/30 05:48:35;;;;;;;0.10;0.10;;;3.70;99.90;;;;;;5035087;28;20194;-83
2021/11/30 05:51:02;;;;;;;0.30;0.30;;;3.60;99.90;;;;;;5036206;28;20204;-85
2021/11/30 05:53:27;;;;;;;0.10;0.10;;;3.60;99.90;;;;;;5061605;28;20176;-84
2021/11/30 05:55:56;;;;;;;0.30;0.30;;;3.50;99.90;;;;;;5057499;28;20257;-84
2021/11/30 05:58:22;;;;;;;0.47;0.40;;;3.50;99.90;;;;;;5035559;28;20268;-84
2021/11/30 06:00:49;;;;;;;0.30;0.30;;;3.60;99.90;;;;;;5035617;28;20181;-84
2021/11/30 06:05:47;;;;;;;0.20;0.20;;;3.40;99.90;;;;;;5053792;28;20655;-83
2021/11/30 06:08:13;;;;;;;0.83;0.67;;;3.40;99.90;;;;;;5039892;28;20600;-83
2021/11/30 06:10:39;;;;;;;0.17;0.17;;;3.40;99.90;;;;;;5032846;28;20268;-83
2021/11/30 06:13:05;;;;;;;0.20;0.20;;;3.40;99.90;;;;;;5029502;28;20182;-83
2021/11/30 06:15:32;;;;;;;0.20;0.20;;;3.30;99.90;;;;;;5035622;28;20179;-83
2021/11/30 06:17:57;;;;;;;0.13;0.13;;;3.40;99.90;;;;;;5034749;28;20305;-83
2021/11/30 06:20:24;;;;;;;0.30;0.13;;;3.30;99.90;;;;;;5035047;28;20179;-83
2021/11/30 06:22:50;;;;;;;0.10;0.10;;;3.30;99.90;;;;;;5042417;28;20195;-83
2021/11/30 06:25:16;;;;;;;0.10;0.10;;;3.40;99.90;;;;;;5049324;28;20183;-84
2021/11/30 06:27:42;;;;;;;0.13;0.13;;;3.30;99.90;;;;;;5032751;28;20664;-83
2021/11/30 06:30:08;;;;;;;0.23;0.20;;;3.30;99.90;;;;;;5045238;28;20175;-84
2021/11/30 06:32:34;;;;;;;0.20;0.10;;;3.30;99.90;;;;;;5043668;28;20176;-84
2021/11/30 06:35:00;;;;;;;0.50;0.50;;;3.30;99.90;;;;;;5036486;28;20701;-84
2021/11/30 06:37:26;;;;;;;0.20;0.20;;;3.30;99.90;;;;;;5028214;28;20202;-83
2021/11/30 06:39:53;;;;;;;0.10;0.10;;;3.30;99.90;;;;;;5033192;28;20559;-84
2021/11/30 06:42:19;;;;;;;0.53;0.40;;;3.30;99.90;;;;;;5048822;28;20193;-84
2021/11/30 06:44:46;;;;;;;0.03;0.03;;;3.20;99.90;;;;;;5053094;28;20210;-83
2021/11/30 06:47:12;;;;;;;0.10;0.10;;;3.20;99.90;;;;;;5035668;28;20626;-84
2021/11/30 06:49:38;;;;;;;0.40;0.40;;;3.20;99.90;;;;;;5053980;28;20238;-83
2021/11/30 06:52:04;;;;;;;0.10;0.10;;;3.20;99.90;;;;;;5033217;28;20179;-83
2021/11/30 06:54:29;;;;;;;0.10;0.10;;;3.20;99.90;;;;;;5034072;28;20181;-84
2021/11/30 06:56:55;;;;;;;0.13;0.13;;;3.30;99.90;;;;;;5034089;28;20235;-83
2021/11/30 06:59:21;;;;;;;0.10;0.10;;;3.30;99.90;;;;;;5037870;28;20262;-83
2021/11/30 07:01:47;;;;;;;0.10;0.10;;;3.30;99.90;;;;;;5039921;28;20278;-83
2021/11/30 07:04:13;;;;;;;0.10;0.10;;;3.30;99.90;;;;;;5055836;28;20686;-83
2021/11/30 07:11:53;;;;;;;0.10;0.10;;;3.40;99.90;;;;;;5053150;28;20180;-82
2021/11/30 07:14:19;;;;;;;0.10;0.10;;;3.40;99.90;;;;;;5049387;28;20218;-84
2021/11/30 07:16:46;;;;;;;0.10;0.10;;;3.50;99.90;;;;;;5038689;28;20205;-84
2021/11/30 07:19:12;;;;;;;0.00;0.00;;;3.50;99.90;;;;;;5035763;28;20611;-84
2021/11/30 07:21:38;;;;;;;4.77;0.40;;;3.60;99.90;;;;;;5058116;28;20187;-84
2021/11/30 07:24:05;;;;;;;0.10;0.10;;;3.60;99.90;;;;;;5037283;28;20687;-83
2021/11/30 07:26:31;;;;;;;0.10;0.10;;;3.50;99.90;;;;;;5034432;28;20807;-83
2021/11/30 07:28:57;;;;;;;0.10;0.10;;;3.50;99.90;;;;;;5040221;28;20199;-83
2021/11/30 07:31:23;;;;;;;0.10;0.10;;;3.50;99.90;;;;;;5057905;28;20170;-84
2021/11/30 07:33:49;;;;;;;0.10;0.10;;;3.60;99.90;;;;;;5035271;28;20190;-84
2021/11/30 07:36:18;;;;;;;0.10;0.10;;;3.60;99.90;;;;;;5045024;28;20317;-83
2021/11/30 07:38:46;;;;;;;0.10;0.10;;;3.70;99.90;;;;;;5046655;28;20277;-82
2021/11/30 07:41:13;;;;;;;0.17;0.17;;;3.70;99.90;;;;;;5038309;28;20562;-81
2021/11/30 07:43:40;;;;;;;0.00;0.00;;;3.80;99.90;;;;;;5041420;28;20213;-81
2021/11/30 07:46:06;;;;;;;0.70;0.70;;;3.80;99.90;;;;;;5053242;28;20543;-81
2021/11/30 07:48:32;;;;;;;0.10;0.10;;;3.80;99.90;;;;;;5038805;28;20624;-81
2021/11/30 07:50:59;;;;;;;0.20;0.20;;;3.90;99.90;;;;;;5040498;28;20191;-81
2021/11/30 07:53:25;;;;;;;0.87;0.20;;;3.90;99.90;;;;;;5026795;28;20259;-81
2021/11/30 07:55:52;;;;;;;0.00;0.00;;;3.90;99.90;;;;;;5032059;28;20204;-81
2021/11/30 07:58:21;;;;;;;0.30;0.30;;;3.90;99.90;;;;;;5034608;28;20211;-81
2021/11/30 08:00:49;;;;;;;0.10;0.10;;;3.90;99.90;;;;;;5038637;28;20182;-81
2021/11/30 08:03:16;;;;;;;0.10;0.10;;;4.00;99.90;;;;;;5047999;28;20239;-81
2021/11/30 08:05:42;;;;;;;0.40;0.40;;;4.00;99.90;;;;;;5036078;28;20185;-81
2021/11/30 08:08:07;;;;;;;1.17;0.27;;;4.00;99.90;;;;;;5036486;28;20224;-81
2021/11/30 08:10:33;;;;;;;0.10;0.10;;;4.00;99.90;;;;;;5034373;28;20172;-81
2021/11/30 08:12:58;;;;;;;0.10;0.10;;;4.00;99.90;;;;;;5036343;28;20180;-81
2021/11/30 08:15:25;;;;;;;0.30;0.30;;;4.10;99.90;;;;;;5031556;28;20195;-81
2021/11/30 08:17:50;;;;;;;0.00;0.00;;;4.20;99.90;;;;;;5055054;28;20718;-81
2021/11/30 08:20:17;;;;;;;0.10;0.10;;;4.20;99.90;;;;;;5037183;28;20198;-81
2021/11/30 08:22:43;;;;;;;0.10;0.10;;;4.20;99.90;;;;;;5038792;28;20556;-81
2021/11/30 08:25:10;;;;;;;0.10;0.10;;;4.20;99.90;;;;;;5032485;28;20237;-81
2021/11/30 08:27:37;;;;;;;0.10;0.10;;;4.10;99.90;;;;;;5038256;28;20229;-81
2021/11/30 08:30:04;;;;;;;0.10;0.10;;;4.20;99.90;;;;;;5046331;28;20188;-81
2021/11/30 08:32:30;;;;;;;0.10;0.10;;;4.20;99.90;;;;;;5025648;28;20554;-81
2021/11/30 08:34:57;;;;;;;0.10;0.10;;;4.20;99.90;;;;;;5051980;28;20199;-81
2021/11/30 08:37:24;;;;;;;0.27;0.27;;;4.30;99.90;;;;;;5034263;28;20230;-81
2021/11/30 08:39:52;;;;;;;0.10;0.10;;;4.30;99.90;;;;;;5031431;28;20214;-81
2021/11/30 08:42:18;;;;;;;0.43;0.30;;;4.40;99.90;;;;;;5052917;28;20188;-81
2021/11/30 08:44:45;;;;;;;0.40;0.40;;;4.30;99.90;;;;;;5028999;28;20238;-81
2021/11/30 08:47:12;;;;;;;0.10;0.10;;;4.30;99.90;;;;;;5052876;28;20194;-81
2021/11/30 08:49:38;;;;;;;0.20;0.20;;;4.30;99.90;;;;;;5033537;28;20581;-81
2021/11/30 08:52:06;;;;;;;0.00;0.00;;;4.30;99.90;;;;;;5047183;28;20177;-81
2021/11/30 08:54:33;;;;;;;0.00;0.00;;;4.40;99.90;;;;;;5020646;28;20236;-82
2021/11/30 08:57:00;;;;;;;0.00;0.00;;;4.40;99.90;;;;;;5031905;28;20179;-81
2021/11/30 08:59:26;;;;;;;0.00;0.00;;;4.40;99.90;;;;;;5025797;28;20203;-81
2021/11/30 09:01:53;;;;;;;0.10;0.10;;;4.40;99.90;;;;;;5025341;28;20184;-81
2021/11/30 09:04:19;;;;;;;0.10;0.10;;;4.40;99.90;;;;;;5045631;28;20216;-81
2021/11/30 09:06:44;;;;;;;0.10;0.10;;;4.40;99.90;;;;;;5031549;28;20238;-81
2021/11/30 09:09:10;;;;;;;0.10;0.10;;;4.50;99.90;;;;;;5034968;28;20205;-81
2021/11/30 09:11:37;;;;;;;0.10;0.10;;;4.50;99.90;;;;;;5031567;28;20180;-81
2021/11/30 09:14:04;;;;;;;0.10;0.10;;;4.50;99.90;;;;;;5029119;28;20200;-81
2021/11/30 09:16:29;;;;;;;0.00;0.00;;;4.50;99.90;;;;;;5031993;28;20666;-81
2021/11/30 09:18:56;;;;;;;0.10;0.10;;;4.50;99.90;;;;;;5035099;28;20208;-81
2021/11/30 09:21:22;;;;;;;0.00;0.00;;;4.50;99.90;;;;;;5035165;28;20194;-81
2021/11/30 09:23:48;;;;;;;0.37;0.20;;;4.60;99.90;;;;;;5028536;28;20583;-81
2021/11/30 09:26:14;;;;;;;0.10;0.10;;;4.60;99.90;;;;;;5033999;28;20274;-81
2021/11/30 09:28:40;;;;;;;0.10;0.10;;;4.60;99.90;;;;;;5029850;28;20205;-81
2021/11/30 09:31:07;;;;;;;0.10;0.10;;;4.60;99.90;;;;;;5031531;28;20270;-81
2021/11/30 09:33:33;;;;;;;0.07;0.07;;;4.60;99.90;;;;;;5048099;28;20183;-81
2021/11/30 09:35:58;;;;;;;0.10;0.10;;;4.70;99.90;;;;;;5031609;28;20218;-81
2021/11/30 09:38:25;;;;;;;0.10;0.10;;;4.70;99.90;;;;;;5026397;28;20234;-81
2021/11/30 09:40:57;;;;;;;0.03;0.03;;;4.70;99.90;;;;;;5024914;28;20189;-81
2021/11/30 09:43:23;;;;;;;0.10;0.10;;;4.70;99.90;;;;;;5028644;28;20568;-81
2021/11/30 09:45:48;;;;;;;0.10;0.10;;;4.80;99.90;;;;;;5030670;28;20205;-81
2021/11/30 09:48:14;;;;;;;0.17;0.17;;;4.90;99.90;;;;;;5032299;28;20195;-81
2021/11/30 09:50:44;;;;;;;0.03;0.03;;;4.80;99.90;;;;;;5030592;28;20203;-81
2021/11/30 09:53:11;;;;;;;0.00;0.00;;;4.90;99.90;;;;;;5045659;28;20230;-81
2021/11/30 09:55:38;;;;;;;0.03;0.03;;;4.90;99.90;;;;;;5035514;28;20279;-81
2021/11/30 09:58:04;;;;;;;0.00;0.00;;;5.00;99.90;;;;;;5052500;28;20595;-81
2021/11/30 10:00:30;;;;;;;0.10;0.10;;;5.00;99.90;;;;;;5021285;28;20278;-81
2021/11/30 10:02:56;;;;;;;0.30;0.30;;;5.00;99.90;;;;;;5030777;28;20185;-81
2021/11/30 10:05:22;;;;;;;0.20;0.20;;;5.00;99.90;;;;;;5026750;28;20692;-81
2021/11/30 10:07:51;;;;;;;0.00;0.00;;;5.10;99.90;;;;;;5035324;28;20193;-80
2021/11/30 10:10:33;;;;;;;0.10;0.10;;;5.10;99.90;;;;;;5046890;28;20185;-81
2021/11/30 10:13:05;;;;;;;0.10;0.10;;;5.20;99.90;;;;;;5038096;28;20719;-81
2021/11/30 10:15:33;;;;;;;0.10;0.10;;;5.20;99.90;;;;;;5057035;28;20177;-81
2021/11/30 10:18:20;;;;;;;0.10;0.10;;;5.30;99.90;;;;;;5032469;28;20258;-81
2021/11/30 10:20:48;;;;;;;0.10;0.10;;;5.30;99.90;;;;;;5023887;28;20792;-81
2021/11/30 10:23:17;;;;;;;0.00;0.00;;;5.30;99.90;;;;;;5025168;28;20206;-82
2021/11/30 10:25:45;;;;;;;0.50;0.50;;;5.30;99.90;;;;;;5028560;28;20613;-81
2021/11/30 10:28:15;;;;;;;0.13;0.13;;;5.40;99.90;;;;;;5030098;28;20211;-81
2021/11/30 10:30:44;;;;;;;0.10;0.10;;;5.40;99.90;;;;;;5047661;28;20170;-81
2021/11/30 10:33:15;;;;;;;0.20;0.20;;;5.40;99.90;;;;;;5041720;28;20195;-81
2021/11/30 10:35:41;;;;;;;0.10;0.10;;;5.40;99.90;;;;;;5027015;28;20186;-81
2021/11/30 10:38:07;;;;;;;0.20;0.20;;;5.40;99.90;;;;;;5029854;28;20235;-81
2021/11/30 10:40:35;;;;;;;0.10;0.10;;;5.40;99.90;;;;;;5027720;28;20622;-81
2021/11/30 10:43:04;;;;;;;0.57;0.50;;;5.50;99.90;;;;;;5021946;28;20232;-81
2021/11/30 10:45:32;;;;;;;0.00;0.00;;;5.50;99.90;;;;;;5036858;28;20185;-81
2021/11/30 10:48:10;;;;;;;0.83;0.33;;;5.60;99.90;;;;;;5052092;28;20283;-81
2021/11/30 10:50:42;;;;;;;0.10;0.10;;;5.60;99.90;;;;;;5026997;28;20205;-81
2021/11/30 10:53:42;;;;;;;0.10;0.10;;;5.60;99.90;;;;;;5029640;28;20193;-81
2021/11/30 10:56:08;;;;;;;0.00;0.00;;;5.60;99.90;;;;;;5002615;28;20222;-81
2021/11/30 10:58:42;;;;;;;0.10;0.10;;;5.60;99.90;;;;;;5027793;28;20646;-81
2021/11/30 11:01:19;;;;;;;0.10;0.10;;;5.50;99.90;;;;;;5046554;28;20181;-81
2021/11/30 11:04:00;;;;;;;0.20;0.20;;;5.60;99.90;;;;;;5033263;28;20704;-81
2021/11/30 11:06:29;;;;;;;0.10;0.10;;;5.60;99.90;;;;;;5045209;28;20170;-81
2021/11/30 11:09:06;;;;;;;0.20;0.10;;;5.60;99.90;;;;;;5032239;28;20202;-81
2021/11/30 11:11:41;;;;;;;0.10;0.10;;;5.60;99.90;;;;;;5025813;28;20174;-81
2021/11/30 11:14:25;;;;;;;0.10;0.10;;;5.60;99.90;;;;;;5036529;28;20212;-81
2021/11/30 11:16:53;;;;;;;0.10;0.10;;;5.60;99.90;;;;;;5034644;28;20917;-81
2021/11/30 11:19:41;;;;;;;0.10;0.10;;;5.70;99.90;;;;;;5046759;28;20201;-81
2021/11/30 11:22:19;;;;;;;0.67;0.20;;;5.70;99.90;;;;;;5027834;28;20565;-81
2021/11/30 11:24:48;;;;;;;0.20;0.20;;;5.70;99.90;;;;;;5026825;28;20736;-81
2021/11/30 11:27:16;;;;;;;0.10;0.10;;;5.80;99.90;;;;;;5036731;28;20174;-81
2021/11/30 11:29:43;;;;;;;0.10;0.10;;;5.80;99.90;;;;;;5038387;28;20213;-81
2021/11/30 11:32:10;;;;;;;0.13;0.13;;;5.80;99.90;;;;;;5039072;28;20526;-81
2021/11/30 11:34:37;;;;;;;0.10;0.10;;;5.80;99.90;;;;;;5033724;28;20599;-81
2021/11/30 11:37:09;;;;;;;0.43;0.43;;;5.90;99.90;;;;;;5037899;28;20182;-81
2021/11/30 11:39:35;;;;;;;0.10;0.10;;;5.90;99.90;;;;;;5023136;28;20220;-82
2021/11/30 11:42:04;;;;;;;0.10;0.10;;;5.90;99.90;;;;;;5039758;28;20192;-81
2021/11/30 11:44:31;;;;;;;0.10;0.10;;;5.90;99.90;;;;;;5034959;28;20210;-81
2021/11/30 11:47:03;;;;;;;0.10;0.10;;;5.90;99.90;;;;;;5037424;28;20222;-81
2021/11/30 11:49:34;;;;;;;0.10;0.10;;;6.00;99.90;;;;;;5029722;28;20268;-81
2021/11/30 11:51:59;;;;;;;0.23;0.23;;;6.00;99.90;;;;;;5043290;28;20185;-81
2021/11/30 11:54:29;;;;;;;0.10;0.10;;;6.00;99.90;;;;;;5035877;28;20189;-81
2021/11/30 11:57:04;;;;;;;0.30;0.30;;;6.00;99.90;;;;;;5036771;28;20178;-81
2021/11/30 11:59:38;;;;;;;0.10;0.10;;;6.00;99.90;;;;;;5034036;28;20209;-81
2021/11/30 12:02:26;;;;;;;0.10;0.10;;;6.00;99.90;;;;;;5040351;28;20209;-80
2021/11/30 12:05:02;;;;;;;0.20;0.20;;;6.00;99.90;;;;;;5050451;28;20186;-81
2021/11/30 12:07:47;;;;;;;0.20;0.20;;;6.00;99.90;;;;;;5040663;28;20204;-81
2021/11/30 12:10:18;;;;;;;0.10;0.10;;;6.00;99.90;;;;;;5053057;28;20192;-81
2021/11/30 12:12:54;;;;;;;0.10;0.10;;;6.00;99.90;;;;;;5060183;28;20179;-81
2021/11/30 12:15:20;;;;;;;0.23;0.23;;;5.90;99.90;;;;;;5034211;28;20189;-81
2021/11/30 12:17:46;;;;;;;0.73;0.73;;;5.90;99.90;;;;;;5054344;28;20182;-81
2021/11/30 12:20:13;;;;;;;0.50;0.30;;;5.90;99.90;;;;;;5037574;28;20182;-81
2021/11/30 12:22:42;;;;;;;0.13;0.13;;;5.90;99.90;;;;;;5031350;28;20170;-81
2021/11/30 12:25:41;;;;;;;0.10;0.10;;;5.90;99.90;;;;;;5031579;28;20217;-81
2021/11/30 12:28:09;;;;;;;0.10;0.10;;;5.90;99.90;;;;;;5049451;28;20858;-82
2021/11/30 12:30:46;;;;;;;0.10;0.10;;;5.90;99.90;;;;;;5046665;28;20180;-81
2021/11/30 12:33:15;;;;;;;0.00;0.00;;;5.90;99.90;;;;;;5058024;28;20191;-81
2021/11/30 12:35:48;;;;;;;0.10;0.10;;;5.90;99.90;;;;;;5041575;28;20558;-81
2021/11/30 12:38:20;;;;;;;0.00;0.00;;;6.00;99.90;;;;;;5037701;28;20201;-81
2021/11/30 12:40:48;;;;;;;0.07;0.07;;;5.90;99.90;;;;;;5047088;28;20177;-81
2021/11/30 12:43:19;;;;;;;0.00;0.00;;;6.00;99.90;;;;;;5051071;28;20204;-82
2021/11/30 12:45:54;;;;;;;0.10;0.10;;;6.00;99.90;;;;;;5043450;28;20256;-81
2021/11/30 12:48:26;;;;;;;0.10;0.10;;;6.00;99.90;;;;;;5055114;28;20274;-81
2021/11/30 12:51:13;;;;;;;0.10;0.10;;;6.00;99.90;;;;;;5031814;28;20911;-82
2021/11/30 12:53:43;;;;;;;0.20;0.20;;;6.00;99.90;;;;;;5054421;28;20665;-82
2021/11/30 12:56:11;;;;;;;0.00;0.00;;;6.00;99.90;;;;;;5045517;28;20214;-82
2021/11/30 12:58:55;;;;;;;0.23;0.23;;;6.10;99.90;;;;;;5035905;28;20296;-82
2021/11/30 13:01:23;;;;;;;0.07;0.07;;;6.10;99.90;;;;;;5035233;28;20192;-82
2021/11/30 13:04:09;;;;;;;0.00;0.00;;;6.10;99.90;;;;;;5033523;28;20201;-82
2021/11/30 13:06:59;;;;;;;0.20;0.20;;;6.10;99.90;;;;;;5030888;28;20189;-83
2021/11/30 13:09:41;;;;;;;0.10;0.10;;;6.10;99.90;;;;;;5048038;28;20204;-82
2021/11/30 13:12:11;;;;;;;0.00;0.00;;;6.10;99.90;;;;;;5049502;28;20258;-82
2021/11/30 13:14:38;;;;;;;0.17;0.17;;;6.20;99.90;;;;;;5033471;28;20739;-82
2021/11/30 13:17:04;;;;;;;0.10;0.10;;;6.20;99.90;;;;;;5059590;28;20221;-82
2021/11/30 13:19:35;;;;;;;0.00;0.00;;;6.20;99.90;;;;;;5036945;28;20565;-82